Tiempo atmosférico en la estación meteorológica de Becerreá, Lugo (1080 m.)



Fecha
DESCASC
Temp. máxima en grados centígrados (hora)
DESCASC
Temp. mínima en grados centígrados (hora)
DESCASC
Temp. media en grados centígrados
DESCASC
Racha de viento máxima en m/sg (hora)
DESCASC
Velocidad máxima media en intervalos de 10 minutos(hora)
DESCASC
Precipitaciones diarias en mm
DESCASC
Precipitaciones de 00:00 a 06:00 en mm
DESCASC
Precipitaciones de 06:00 a 12:00 en mm
DESCASC
Precipitaciones de 12:00 a 18:00 en mm
DESCASC
Precipitaciones de 18:00 a 24:00 en mm
DESCASC
15-07-2018 16.3 (16:20) 11.7 (23:10) 14 8.06 (16:50) 3.89 (15:10) 44.8 0 0 2 42.8
14-07-2018 23.4 (14:00) 13.4 (06:50) 18.4 7.5 (22:20) 4.44 (22:20) 4.2 0 0 2.2 2
13-07-2018 23.9 (15:00) 13.5 (02:50) 18.7 8.61 (06:30) 4.17 (05:40) 0.4 0 0 0.4 0
12-07-2018 20.6 (16:50) 11.9 (00:00) 16.3 6.11 (22:20) 2.22 (19:10) 0 0 0 0 0
11-07-2018 17.7 (15:00) 12.9 (00:00) 15.3 6.39 (11:10) 2.22 (17:30) 0 0 0 0 0
10-07-2018 25 (17:30) 14.8 (00:00) 19.9 8.06 (10:30) 3.89 (04:10) 0 0 0 0 0
09-07-2018 24.1 (17:30) 14 (00:00) 19.1 5.83 (18:20) 3.06 (04:50) 0 0 0 0 0
08-07-2018 22.6 (15:40) 12.8 (07:00) 17.7 5.83 (17:40) 1.94 (18:00) 0 0 0 0 0
07-07-2018 21.9 (16:30) 12.2 (00:00) 17 6.67 (05:10) 3.89 (06:20) 1.2 0 0 0.4 0.8
06-07-2018 18.4 (16:00) 11.4 (00:00) 14.9 5.28 (16:00) 3.06 (15:20) 0.2 0 0 0 0.2
05-07-2018 16.3 (18:20) 10.4 (06:10) 13.3 6.11 (00:50) 3.06 (20:20) 0 0 0 0 0
04-07-2018 15.6 (17:00) 11 (12:40) 13.3 8.33 (21:40) 4.44 (21:40) 11.8 0.2 6.8 4.8 0
03-07-2018 18 (16:30) 10.8 (02:10) 14.4 7.5 (15:50) 3.61 (15:20) 0.2 0 0.2 0 0
02-07-2018 16.8 (17:50) 11.4 (02:10) 14.1 11.11 (19:20) 5.28 (15:20) 5.4 0.2 2.6 2.2 0.4
01-07-2018 17.3 (13:20) 12 (00:00) 14.6 10.28 (17:10) 5.56 (14:30) 1.4 0.8 0 0.4 0.2
30-06-2018 15.6 (04:40) 11.9 (17:00) 13.8 12.22 (05:00) 5 (04:50) 24.6 4.8 11.4 8.4 0
29-06-2018 22 (15:50) 11.6 (00:00) 16.8 7.22 (06:50) 4.72 (06:50) 1.6 0 0 0 1.6
28-06-2018 17.5 (14:00) 11.3 (00:00) 14.4 7.5 (16:30) 3.61 (20:00) 6.2 0 0 0.4 5.8
27-06-2018 16 (18:50) 11.2 (00:00) 13.6 6.11 (04:30) 4.17 (04:30) 1 0.4 0.6 0 0
26-06-2018 19.6 (11:50) 13.5 (00:00) 16.6 5.83 (20:30) 3.61 (20:30) 0.8 0 0.4 0 0.4
25-06-2018 28.6 (14:30) 15.9 (00:00) 22.3 8.89 (18:00) 5 (18:10) 0 0 0 0 0
24-06-2018 30.1 (18:00) 19.8 (00:00) 24.9 8.06 (05:00) 4.72 (05:00) 0 0 0 0 0
23-06-2018 27 (16:30) 15.2 (00:00) 21.1 8.06 (05:00) 4.72 (06:30) 0 0 0 0 0
22-06-2018 23.1 (16:30) 13.2 (07:10) 18.2 5.28 (05:10) 2.22 (16:10) 0.2 0.2 0 0 0
21-06-2018 23.2 (15:40) 14.2 (00:00) 18.7 5.83 (22:50) 2.22 (15:50) 0 0 0 0 0
20-06-2018 26.3 (17:10) 16.5 (00:00) 21.4 6.39 (18:20) 3.61 (18:50) 0 0 0 0 0
19-06-2018 24.6 (16:30) 10.8 (00:00) 17.7 6.67 (01:50) 2.78 (19:50) 0 0 0 0 0
18-06-2018 23.7 (16:30) 11 (00:00) 17.4 7.5 (16:00) 2.5 (08:30) 0 0 0 0 0
17-06-2018 22 (16:30) 9.7 (00:00) 15.8 6.39 (19:30) 2.5 (18:00) 0 0 0 0 0

Gráficas

Temp. máximas Temp. mínimas Temp. medias Precipitaciones Rachas de viento máximas Velocidades máximas media en intervalos de 10 minutos

Datos horarios

Fecha y hora oficial Temperatura (ºC) Velocidad del viento (km/h) Dirección del viento Racha (km/h) Dirección de racha Precipitación (mm) Presión (hPa) Tendencia (hPa) Humedad (%)
2018-07-16 23:00:00 13.3 7 Noroeste 17 Noroeste 0 -- -- 97
2018-07-16 22:00:00 14.1 8 Noroeste 17 Norte 0 -- -- 94
2018-07-16 21:00:00 15.3 9 Oeste 17 Noroeste 0 -- -- 89
2018-07-16 20:00:00 16.4 8 Oeste 15 Oeste 0 -- -- 83
2018-07-16 19:00:00 17 6 Oeste 13 Noroeste 0 -- -- 76
2018-07-16 18:00:00 17.5 6 Oeste 14 Noroeste 0 -- -- 72
2018-07-16 17:00:00 17.7 5 Noroeste 14 Oeste 0 -- -- 72
2018-07-16 16:00:00 17 5 Noroeste 14 Noroeste 0 -- -- 79
2018-07-16 15:00:00 15.8 6 Oeste 18 Oeste 0 -- -- 77
2018-07-16 14:00:00 15.1 6 Oeste 16 Oeste 0 -- -- 88
2018-07-16 13:00:00 14.4 7 Oeste 15 Oeste 0 -- -- 95
2018-07-16 12:00:00 12.7 4 Sudoeste 10 Sudoeste 0 -- -- 100
2018-07-16 11:00:00 12 4 Oeste 14 Oeste 0 -- -- 100
2018-07-16 10:00:00 11.3 5 Oeste 13 Oeste 0 -- -- 100
2018-07-16 09:00:00 11.1 5 Oeste 19 Oeste 0 -- -- 100
2018-07-16 08:00:00 11 7 Sudoeste 12 Sudoeste 0 -- -- 100
2018-07-16 07:00:00 11.1 2 Sudeste 12 Oeste 0 -- -- 100
2018-07-16 06:00:00 11.4 5 Oeste 9 Oeste 0 -- -- 100
2018-07-16 05:00:00 11.7 4 Noroeste 12 Oeste 0.2 -- -- 100
2018-07-16 04:00:00 12 4 Noroeste 10 Oeste 0 -- -- 100
2018-07-16 03:00:00 12 2 Norte 9 Noroeste 0 -- -- 100
2018-07-16 02:00:00 12 4 Noroeste 11 Noroeste 0 -- -- 100
2018-07-16 01:00:00 11.9 5 Norte 14 Noroeste 0 -- -- 100
2018-07-16 00:00:00 12 9 Oeste 19 Sudoeste 4 -- -- 100
2018-07-15 23:00:00 11.9 13 Oeste 21 Oeste 10.8 -- -- 100
2018-07-15 22:00:00 12 4 Oeste 9 Noroeste 1.8 -- -- 99
2018-07-15 21:00:00 12 3 Noroeste 12 Noroeste 3 -- -- 99
2018-07-15 20:00:00 12.3 3 Noroeste 17 Noroeste 17.8 -- -- 100
2018-07-15 19:00:00 13.7 6 Nordeste 21 Oeste 5.4 -- -- 99
2018-07-15 18:00:00 14.2 13 Oeste 27 Sudoeste 0 -- -- 99
2018-07-15 17:00:00 14.5 13 Oeste 29 Oeste 2 -- -- 97
2018-07-15 16:00:00 15.5 13 Oeste 28 Oeste 0 -- -- 98
2018-07-15 15:00:00 15.2 14 Oeste 25 Oeste 0 -- -- 99
2018-07-15 14:00:00 15.2 11 Oeste 20 Oeste 0 -- -- 100
2018-07-15 13:00:00 14 9 Oeste 19 Oeste 0 -- -- 100
2018-07-15 12:00:00 14.1 7 Oeste 17 Sudoeste 0 -- -- 100
2018-07-15 11:00:00 14.2 6 Oeste 14 Oeste 0 -- -- 100
2018-07-15 10:00:00 14 5 Noroeste 15 Noroeste 0 -- -- 100
2018-07-15 09:00:00 13.9 5 Oeste 11 Sudoeste 0 -- -- 100
2018-07-15 08:00:00 13.8 7 Oeste 13 Oeste 0 -- -- 100
2018-07-15 07:00:00 13.6 8 Oeste 12 Oeste 0 -- -- 100
2018-07-15 06:00:00 13.8 5 Oeste 9 Oeste 0 -- -- 100
2018-07-15 05:00:00 14.1 5 Oeste 12 Oeste 0 -- -- 100
2018-07-15 04:00:00 14.1 8 Oeste 15 Oeste 0 -- -- 100
2018-07-15 03:00:00 14.2 9 Oeste 17 Oeste 0 -- -- 100
2018-07-15 02:00:00 14.4 6 Oeste 10 Oeste 0 -- -- 100
2018-07-15 01:00:00 14.6 5 Noroeste 14 Noroeste 0 -- -- 100
2018-07-15 00:00:00 14.8 10 Oeste 19 Oeste 0 -- -- 100
2018-07-14 23:00:00 15.2 11 Oeste 27 Oeste 0 -- -- 100
2018-07-14 22:00:00 16 13 Oeste 23 Sudoeste 0 -- -- 99
2018-07-14 21:00:00 16.5 7 Oeste 17 Oeste 0.2 -- -- 99
2018-07-14 20:00:00 17.3 4 Norte 25 Norte 1.8 -- -- 97
2018-07-14 19:00:00 18.5 7 Norte 20 Norte 0 -- -- 94
2018-07-14 18:00:00 21 5 Norte 17 Oeste 0 -- -- 86
2018-07-14 17:00:00 20.6 8 Noroeste 20 Noroeste 0.8 -- -- 85
2018-07-14 16:00:00 19.8 8 Oeste 18 Oeste 1.4 -- -- 83
2018-07-14 15:00:00 23.1 6 Noroeste 14 Noroeste 0 -- -- 64
2018-07-14 14:00:00 23.4 3 Sur 10 Nordeste 0 -- -- 63
2018-07-14 13:00:00 22.4 2 Este 9 Este 0 -- -- 57
2018-07-14 12:00:00 21 2 Este 8 Sudeste 0 -- -- 63
2018-07-14 11:00:00 19.2 0 Calma 8 Este 0 -- -- 65
2018-07-14 10:00:00 18 2 Nordeste 8 Nordeste 0 -- -- 68
2018-07-14 09:00:00 16.4 3 Nordeste 11 Norte 0 -- -- 74
2018-07-14 08:00:00 14.5 0 Calma 11 Sudeste 0 -- -- 83
2018-07-14 07:00:00 13.4 0 Calma 6 Este 0 -- -- 90
2018-07-14 06:00:00 13.8 2 Este 7 Sudeste 0 -- -- 91
2018-07-14 05:00:00 13.8 0 Calma 6 Este 0 -- -- 84
2018-07-14 04:00:00 14.6 2 Sur 15 Sudeste 0 -- -- 74
2018-07-14 03:00:00 16.9 10 Sudeste 25 Sudeste 0 -- -- 61
2018-07-14 02:00:00 16.4 12 Sudeste 24 Sudeste 0 -- -- 64
2018-07-14 01:00:00 16 14 Sudeste 21 Sudeste 0 -- -- 69
2018-07-14 00:00:00 15.5 9 Este 24 Sudeste 0 -- -- 76
2018-07-13 23:00:00 16 10 Sudeste 19 Sudeste 0 -- -- 76
2018-07-13 22:00:00 17.7 2 Oeste 10 Sudoeste 0 -- -- 74
2018-07-13 21:00:00 17.2 3 Sudeste 16 Este 0 -- -- 73
2018-07-13 20:00:00 17.4 3 Este 15 Sudeste 0 -- -- 81
2018-07-13 19:00:00 19.8 4 Nordeste 15 Nordeste 0 -- -- 90
2018-07-13 18:00:00 18.9 3 Nordeste 13 Nordeste 0 -- -- 87
2018-07-13 17:00:00 20 5 Nordeste 18 Noroeste 0 -- -- 87
2018-07-13 16:00:00 22.1 7 Noroeste 15 Noroeste 0 -- -- 79
2018-07-13 15:00:00 23.9 2 Norte 10 Sudeste 0 -- -- 71
2018-07-13 14:00:00 22.9 2 Nordeste 8 Nordeste 0.4 -- -- 72
2018-07-13 13:00:00 21.7 2 Este 8 Este 0 -- -- 67
2018-07-13 12:00:00 20 2 Este 7 Nordeste 0 -- -- 71
2018-07-13 11:00:00 18.4 3 Este 9 Sudeste 0 -- -- 82
2018-07-13 10:00:00 17.1 3 Nordeste 12 Este 0 -- -- 86
2018-07-13 09:00:00 16.2 4 Este 18 Sudeste 0 -- -- 88
2018-07-13 08:00:00 15.7 10 Sudeste 25 Sudeste 0 -- -- 83
2018-07-13 07:00:00 15.5 13 Sudeste 31 Sudeste 0 -- -- 80
2018-07-13 06:00:00 15.6 15 Sudeste 28 Sudeste 0 -- -- 83
2018-07-13 05:00:00 15.3 12 Sudeste 24 Sudeste 0 -- -- 88
2018-07-13 04:00:00 13.7 5 Sudeste 16 Sudeste 0 -- -- 100
2018-07-13 03:00:00 13.6 2 Este 11 Sudeste 0 -- -- 99
2018-07-13 02:00:00 13.7 3 Nordeste 9 Este 0 -- -- 98
2018-07-13 01:00:00 13.9 2 Nordeste 12 Nordeste 0 -- -- 97
2018-07-13 00:00:00 14.6 2 Nordeste 13 Este 0 -- -- 94
2018-07-12 23:00:00 14.9 3 Nordeste 22 Este 0 -- -- 94
2018-07-12 22:00:00 15.8 4 Nordeste 18 Nordeste 0 -- -- 90
2018-07-12 21:00:00 17.1 4 Nordeste 20 Nordeste 0 -- -- 88
2018-07-12 20:00:00 18.4 6 Nordeste 21 Nordeste 0 -- -- 85
2018-07-12 19:00:00 19.6 6 Nordeste 15 Nordeste 0 -- -- 81
2018-07-12 18:00:00 19.4 4 Nordeste 14 Norte 0 -- -- 80
2018-07-12 17:00:00 20.2 4 Nordeste 17 Nordeste 0 -- -- 74
2018-07-12 16:00:00 20 5 Norte 18 Norte 0 -- -- 74
2018-07-12 15:00:00 19.3 5 Noroeste 14 Noroeste 0 -- -- 78
2018-07-12 14:00:00 17.9 3 Noroeste 9 Norte 0 -- -- 84
2018-07-12 13:00:00 17 3 Norte 11 Este 0 -- -- 88
2018-07-12 12:00:00 15.5 3 Este 9 Nordeste 0 -- -- 100
2018-07-12 11:00:00 13.2 2 Este 9 Nordeste 0 -- -- 100
2018-07-12 10:00:00 12.3 3 Nordeste 12 Nordeste 0 -- -- 100
2018-07-12 09:00:00 11.9 4 Nordeste 11 Sudeste 0 -- -- 100
2018-07-12 08:00:00 12 2 Norte 9 Nordeste 0 -- -- 100
2018-07-12 07:00:00 12 0 Calma 9 Este 0 -- -- 100
2018-07-12 06:00:00 12.1 3 Nordeste 15 Nordeste 0 -- -- 100
2018-07-12 05:00:00 12.2 3 Nordeste 9 Norte 0 -- -- 100
2018-07-12 04:00:00 12.3 3 Nordeste 14 Sudeste 0 -- -- 100
2018-07-12 03:00:00 12.5 3 Nordeste 10 Nordeste 0 -- -- 100
2018-07-12 02:00:00 12.7 2 Nordeste 10 Nordeste 0 -- -- 100
2018-07-12 01:00:00 12.8 4 Nordeste 15 Norte 0 -- -- 100
2018-07-12 00:00:00 12.9 4 Nordeste 14 Este 0 -- -- 100
2018-07-11 23:00:00 13 4 Nordeste 15 Nordeste 0 -- -- 100
2018-07-11 22:00:00 13.4 5 Nordeste 18 Nordeste 0 -- -- 99
2018-07-11 21:00:00 13.8 5 Nordeste 17 Nordeste 0 -- -- 98
2018-07-11 20:00:00 14.4 5 Nordeste 17 Norte 0 -- -- 97
2018-07-11 19:00:00 15.3 6 Nordeste 16 Nordeste 0 -- -- 95
2018-07-11 18:00:00 15.7 5 Nordeste 19 Nordeste 0 -- -- 94
2018-07-11 17:00:00 16.4 5 Nordeste 17 Nordeste 0 -- -- 93
2018-07-11 16:00:00 15.9 6 Nordeste 15 Norte 0 -- -- 95
2018-07-11 15:00:00 17.7 3 Nordeste 17 Nordeste 0 -- -- 85
2018-07-11 14:00:00 16.3 0 Calma 12 Nordeste 0 -- -- 91
2018-07-11 13:00:00 14.6 4 Nordeste 19 Nordeste 0 -- -- 97
2018-07-11 12:00:00 13.8 4 Nordeste 23 Este 0 -- -- 99
2018-07-11 11:00:00 13.4 4 Nordeste 22 Nordeste 0 -- -- 98
2018-07-11 10:00:00 13.2 4 Nordeste 15 Este 0 -- -- 99
2018-07-11 09:00:00 12.9 4 Nordeste 14 Este 0 -- -- 100
2018-07-11 08:00:00 12.9 4 Nordeste 14 Nordeste 0 -- -- 100
2018-07-11 07:00:00 13.1 4 Nordeste 17 Nordeste 0 -- -- 100
2018-07-11 06:00:00 13.8 4 Nordeste 14 Nordeste 0 -- -- 100
2018-07-11 05:00:00 14.2 4 Nordeste 19 Nordeste 0 -- -- 100
2018-07-11 04:00:00 14.4 4 Nordeste 14 Nordeste 0 -- -- 100
2018-07-11 03:00:00 14.7 4 Nordeste 13 Este 0 -- -- 99
2018-07-11 02:00:00 15 3 Nordeste 13 Este 0 -- -- 98
2018-07-11 01:00:00 15.4 2 Nordeste 9 Nordeste 0 -- -- 97
2018-07-11 00:00:00 15.9 2 Nordeste 14 Este 0 -- -- 95
2018-07-10 23:00:00 16.6 4 Nordeste 12 Este 0 -- -- 93
2018-07-10 22:00:00 17.6 5 Nordeste 14 Norte 0 -- -- 91
2018-07-10 21:00:00 19.3 6 Nordeste 17 Norte 0 -- -- 86
2018-07-10 20:00:00 21 6 Nordeste 17 Norte 0 -- -- 81
2018-07-10 19:00:00 22.9 7 Nordeste 18 Nordeste 0 -- -- 73
2018-07-10 18:00:00 24.8 5 Noroeste 16 Noroeste 0 -- -- 60
2018-07-10 17:00:00 24.6 3 Oeste 15 Oeste 0 -- -- 56
2018-07-10 16:00:00 23.3 3 Norte 9 Noroeste 0 -- -- 63
2018-07-10 15:00:00 22.6 2 Norte 10 Nordeste 0 -- -- 73
2018-07-10 14:00:00 22.2 3 Este 9 Este 0 -- -- 73
2018-07-10 13:00:00 21.6 4 Este 9 Este 0 -- -- 74
2018-07-10 12:00:00 20.9 5 Este 21 Sudeste 0 -- -- 77
2018-07-10 11:00:00 18.6 8 Sudeste 29 Sudeste 0 -- -- 76
2018-07-10 10:00:00 17.3 6 Sudeste 23 Sudeste 0 -- -- 78
2018-07-10 09:00:00 16.5 10 Sudeste 23 Sudeste 0 -- -- 80
2018-07-10 08:00:00 15.6 12 Sudeste 24 Sudeste 0 -- -- 83
2018-07-10 07:00:00 15 10 Sudeste 17 Sudeste 0 -- -- 92
2018-07-10 06:00:00 15.8 11 Sudeste 20 Sudeste 0 -- -- 88
2018-07-10 05:00:00 16.4 12 Sudeste 23 Sudeste 0 -- -- 88
2018-07-10 04:00:00 16.3 12 Sudeste 19 Sudeste 0 -- -- 91
2018-07-10 03:00:00 14.9 3 Sudeste 9 Este 0 -- -- 96
2018-07-10 02:00:00 15.3 3 Este 8 Este 0 -- -- 95
2018-07-10 01:00:00 15.5 2 Este 8 Este 0 -- -- 94
2018-07-10 00:00:00 15.9 2 Norte 10 Nordeste 0 -- -- 93
2018-07-09 23:00:00 16.7 3 Nordeste 14 Nordeste 0 -- -- 90
2018-07-09 22:00:00 17.8 5 Nordeste 15 Nordeste 0 -- -- 85
2018-07-09 21:00:00 19.3 6 Nordeste 17 Este 0 -- -- 81
2018-07-09 20:00:00 20.6 7 Nordeste 21 Noroeste 0 -- -- 76
2018-07-09 19:00:00 22.5 7 Nordeste 21 Nordeste 0 -- -- 70
2018-07-09 18:00:00 23.7 6 Nordeste 18 Nordeste 0 -- -- 63
2018-07-09 17:00:00 23.7 3 Nordeste 14 Nordeste 0 -- -- 63
2018-07-09 16:00:00 23.9 4 Nordeste 14 Nordeste 0 -- -- 63
2018-07-09 15:00:00 23.2 3 Nordeste 13 Norte 0 -- -- 66
2018-07-09 14:00:00 22.6 3 Nordeste 12 Este 0 -- -- 69
2018-07-09 13:00:00 21.9 3 Nordeste 11 Nordeste 0 -- -- 76
2018-07-09 12:00:00 20.7 3 Nordeste 9 Este 0 -- -- 80
2018-07-09 11:00:00 18.8 3 Este 19 Sudeste 0 -- -- 86
2018-07-09 10:00:00 17.5 5 Este 15 Este 0 -- -- 87
2018-07-09 09:00:00 15.9 2 Este 13 Nordeste 0 -- -- 93
2018-07-09 08:00:00 14.7 3 Nordeste 12 Nordeste 0 -- -- 98
2018-07-09 07:00:00 14.1 3 Este 11 Este 0 -- -- 99
2018-07-09 06:00:00 14.7 2 Este 9 Sudeste 0 -- -- 98
2018-07-09 05:00:00 15.2 5 Sudeste 18 Sudeste 0 -- -- 96
2018-07-09 04:00:00 15.3 5 Sudeste 13 Sudeste 0 -- -- 100
2018-07-09 03:00:00 15.5 2 Este 11 Este 0 -- -- 99
2018-07-09 02:00:00 15.8 2 Este 10 Este 0 -- -- 99
2018-07-09 01:00:00 16.1 3 Nordeste 11 Este 0 -- -- 99
2018-07-09 00:00:00 16.5 3 Nordeste 10 Nordeste 0 -- -- 97
2018-07-08 23:00:00 17.4 0 Calma 12 Este 0 -- -- 93
2018-07-08 22:00:00 18.1 0 Calma 10 Nordeste 0 -- -- 90
2018-07-08 21:00:00 18.9 3 Nordeste 12 Nordeste 0 -- -- 86
2018-07-08 20:00:00 20.4 3 Nordeste 14 Nordeste 0 -- -- 84
2018-07-08 19:00:00 21.8 6 Nordeste 21 Norte 0 -- -- 79
2018-07-08 18:00:00 22.5 7 Nordeste 21 Norte 0 -- -- 78
2018-07-08 17:00:00 21.6 4 Nordeste 13 Norte 0 -- -- 80
2018-07-08 16:00:00 22.3 4 Nordeste 13 Nordeste 0 -- -- 78
2018-07-08 15:00:00 22.1 3 Nordeste 9 Este 0 -- -- 74
2018-07-08 14:00:00 21.2 2 Este 10 Este 0 -- -- 80
2018-07-08 13:00:00 20.2 3 Este 7 Sudeste 0 -- -- 84
2018-07-08 12:00:00 17.4 3 Este 9 Este 0 -- -- 99
2018-07-08 11:00:00 14.8 3 Este 10 Este 0 -- -- 100
2018-07-08 10:00:00 13.6 3 Este 12 Nordeste 0 -- -- 100
2018-07-08 09:00:00 13 3 Este 11 Este 0 -- -- 100
2018-07-08 08:00:00 12.8 3 Este 10 Este 0 -- -- 100
2018-07-08 07:00:00 12.8 4 Este 14 Sudeste 0 -- -- 100
2018-07-08 06:00:00 13.2 2 Este 11 Este 0 -- -- 100
2018-07-08 05:00:00 13.4 2 Este 10 Sudeste 0 -- -- 100
2018-07-08 04:00:00 13.6 3 Este 13 Este 0 -- -- 100
2018-07-08 03:00:00 13.9 3 Este 12 Este 0 -- -- 100
2018-07-08 02:00:00 14.2 0 Calma 10 Sudeste 0 -- -- 99
2018-07-08 01:00:00 14.5 2 Este 13 Este 0 -- -- 99
2018-07-08 00:00:00 14.7 3 Nordeste 10 Nordeste 0 -- -- 98
2018-07-07 23:00:00 14.7 3 Nordeste 14 Norte 0 -- -- 94
2018-07-07 22:00:00 15.1 3 Nordeste 16 Este 0 -- -- 88
2018-07-07 21:00:00 15.3 3 Nordeste 10 Este 0 -- -- 85
2018-07-07 20:00:00 17.4 4 Nordeste 15 Este 0.8 -- -- 85
2018-07-07 19:00:00 19.3 4 Nordeste 18 Nordeste 0 -- -- 83
2018-07-07 18:00:00 19.2 5 Nordeste 20 Norte 0.4 -- -- 86
2018-07-07 17:00:00 20.3 6 Norte 18 Nordeste 0 -- -- 79
2018-07-07 16:00:00 21.3 3 Norte 17 Noroeste 0 -- -- 72
2018-07-07 15:00:00 20.6 7 Noroeste 17 Noroeste 0 -- -- 79
2018-07-07 14:00:00 20.2 3 Norte 13 Nordeste 0 -- -- 82
2018-07-07 13:00:00 19.6 3 Norte 11 Noroeste 0 -- -- 82
2018-07-07 12:00:00 18.9 3 Norte 9 Sur 0 -- -- 79
2018-07-07 11:00:00 17.7 3 Sudeste 16 Sur 0 -- -- 80
2018-07-07 10:00:00 16.7 7 Sur 17 Sur 0 -- -- 79
2018-07-07 09:00:00 15.6 10 Sur 22 Sudeste 0 -- -- 81
2018-07-07 08:00:00 14.9 9 Sudeste 22 Sudeste 0 -- -- 87
2018-07-07 07:00:00 14.7 11 Sudeste 22 Sudeste 0 -- -- 88
2018-07-07 06:00:00 15 10 Sudeste 24 Sudeste 0 -- -- 88
2018-07-07 05:00:00 14.7 11 Sudeste 21 Sudeste 0 -- -- 88
2018-07-07 04:00:00 13.3 9 Sudeste 15 Sudeste 0 -- -- 86
2018-07-07 03:00:00 12.5 3 Este 12 Este 0 -- -- 96
2018-07-07 02:00:00 12.3 2 Este 9 Sudeste 0 -- -- 98
2018-07-07 01:00:00 12.2 4 Este 11 Sudeste 0 -- -- 97
2018-07-07 00:00:00 12.6 2 Nordeste 8 Nordeste 0 -- -- 97
2018-07-06 23:00:00 13 0 Calma 5 Nordeste 0 -- -- 92
2018-07-06 22:00:00 13.5 0 Calma 5 Este 0 -- -- 90
2018-07-06 21:00:00 13.9 0 Calma 5 Este 0 -- -- 91
2018-07-06 20:00:00 13.5 0 Calma 12 Este 0.2 -- -- 91
2018-07-06 19:00:00 15.5 0 Calma 9 Oeste 0 -- -- 97
2018-07-06 18:00:00 15.9 6 Oeste 13 Oeste 0 -- -- 91
2018-07-06 17:00:00 16.8 7 Oeste 15 Oeste 0 -- -- 89
2018-07-06 16:00:00 18.4 10 Oeste 19 Oeste 0 -- -- 82
2018-07-06 15:00:00 16.9 10 Oeste 17 Oeste 0 -- -- 93
2018-07-06 14:00:00 16.8 10 Oeste 18 Sudoeste 0 -- -- 92
2018-07-06 13:00:00 16.4 7 Oeste 12 Oeste 0 -- -- 95
2018-07-06 12:00:00 15.4 3 Noroeste 8 Oeste 0 -- -- 100
2018-07-06 11:00:00 13.5 0 Calma 11 Este 0 -- -- 100
2018-07-06 10:00:00 12.4 4 Sudeste 11 Sudeste 0 -- -- 100
2018-07-06 09:00:00 11.8 0 Calma 8 Nordeste 0 -- -- 100
2018-07-06 08:00:00 11.5 0 Calma 6 Este 0 -- -- 100
2018-07-06 07:00:00 11.4 0 Calma 10 Este 0 -- -- 100
2018-07-06 06:00:00 11.5 0 Calma 6 Norte 0 -- -- 100
2018-07-06 05:00:00 11.7 2 Nordeste 8 Nordeste 0 -- -- 100
2018-07-06 04:00:00 11.8 0 Calma 8 Sur 0 -- -- 100
2018-07-06 03:00:00 12 0 Calma 6 Norte 0 -- -- 100
2018-07-06 02:00:00 12 0 Calma 9 Nordeste 0 -- -- 100
2018-07-06 01:00:00 12.3 2 Nordeste 8 Nordeste 0 -- -- 100
2018-07-06 00:00:00 12.3 0 Calma 10 Noroeste 0 -- -- 100
2018-07-05 23:00:00 12.6 4 Noroeste 14 Noroeste 0 -- -- 99
2018-07-05 22:00:00 12.7 9 Noroeste 15 Noroeste 0 -- -- 96
2018-07-05 21:00:00 14 6 Noroeste 18 Oeste 0 -- -- 94
2018-07-05 20:00:00 14.4 8 Oeste 17 Noroeste 0 -- -- 91
2018-07-05 19:00:00 15.4 9 Oeste 18 Noroeste 0 -- -- 86
2018-07-05 18:00:00 15.7 8 Oeste 13 Noroeste 0 -- -- 83
2018-07-05 17:00:00 15.8 6 Oeste 16 Oeste 0 -- -- 85
2018-07-05 16:00:00 14.2 8 Oeste 14 Sudoeste 0 -- -- 91
2018-07-05 15:00:00 13.2 6 Oeste 10 Oeste 0 -- -- 92
2018-07-05 14:00:00 13.2 2 Nordeste 6 Este 0 -- -- 97
2018-07-05 13:00:00 13 0 Calma 9 Sudoeste 0 -- -- 97
2018-07-05 12:00:00 11.8 3 Sudoeste 11 Sudoeste 0 -- -- 98
2018-07-05 11:00:00 11.1 5 Oeste 12 Oeste 0 -- -- 100
2018-07-05 10:00:00 11.2 3 Oeste 12 Oeste 0 -- -- 100
2018-07-05 09:00:00 10.9 4 Oeste 8 Noroeste 0 -- -- 100
2018-07-05 08:00:00 10.4 3 Oeste 9 Sudoeste 0 -- -- 100
2018-07-05 07:00:00 10.5 5 Oeste 17 Oeste 0 -- -- 100
2018-07-05 06:00:00 10.5 6 Oeste 17 Oeste 0 -- -- 100
2018-07-05 05:00:00 10.7 8 Noroeste 17 Noroeste 0 -- -- 100
2018-07-05 04:00:00 10.9 5 Oeste 13 Oeste 0 -- -- 100
2018-07-05 03:00:00 11 4 Oeste 13 Oeste 0 -- -- 100
2018-07-05 02:00:00 11.1 6 Oeste 17 Oeste 0 -- -- 100
2018-07-05 01:00:00 11.1 7 Oeste 22 Oeste 0 -- -- 100
2018-07-05 00:00:00 11.4 5 Oeste 11 Oeste 0 -- -- 100
2018-07-04 23:00:00 11.4 6 Oeste 22 Oeste 0 -- -- 99
2018-07-04 22:00:00 11.6 14 Oeste 30 Oeste 0 -- -- 99
2018-07-04 21:00:00 12.7 12 Oeste 27 Oeste 0 -- -- 97
2018-07-04 20:00:00 14.1 5 Noroeste 16 Noroeste 0 -- -- 96
2018-07-04 19:00:00 13.4 6 Oeste 19 Oeste 0 -- -- 98
2018-07-04 18:00:00 13.2 10 Oeste 22 Oeste 0.6 -- -- 96
2018-07-04 17:00:00 15.6 5 Noroeste 15 Sudoeste 0 -- -- 90
2018-07-04 16:00:00 14.1 5 Oeste 14 Oeste 0 -- -- 99
2018-07-04 15:00:00 12 9 Oeste 19 Noroeste 0 -- -- 100
2018-07-04 14:00:00 12 5 Oeste 24 Oeste 0.6 -- -- 100
2018-07-04 13:00:00 11 12 Oeste 26 Oeste 3.6 -- -- 100
2018-07-04 12:00:00 11.3 8 Oeste 16 Sudoeste 1 -- -- 100
2018-07-04 11:00:00 11.3 6 Sudoeste 17 Noroeste 0.8 -- -- 100
2018-07-04 10:00:00 11.4 7 Oeste 21 Oeste 0 -- -- 100
2018-07-04 09:00:00 11.6 13 Oeste 23 Sudoeste 2.4 -- -- 100
2018-07-04 08:00:00 12.2 5 Sudoeste 11 Oeste 2.6 -- -- 100
2018-07-04 07:00:00 12.2 0 Calma 5 Nordeste 0 -- -- 100
2018-07-04 06:00:00 12.2 0 Calma 5 Norte 0.2 -- -- 100
2018-07-04 05:00:00 12.2 3 Oeste 7 Noroeste 0 -- -- 100
2018-07-04 04:00:00 12.2 4 Oeste 7 Oeste 0 -- -- 100
2018-07-04 03:00:00 12.4 4 Noroeste 12 Oeste 0 -- -- 100
2018-07-04 02:00:00 12.6 6 Oeste 16 Oeste 0 -- -- 99
2018-07-04 01:00:00 12.8 8 Oeste 13 Oeste 0 -- -- 99
2018-07-04 00:00:00 13.1 8 Oeste 15 Oeste 0 -- -- 98
2018-07-03 23:00:00 13.5 9 Oeste 22 Sudoeste 0 -- -- 96
2018-07-03 22:00:00 14.3 12 Oeste 22 Oeste 0 -- -- 93
2018-07-03 21:00:00 15.3 11 Oeste 21 Oeste 0 -- -- 86
2018-07-03 20:00:00 16.8 10 Oeste 21 Oeste 0 -- -- 72
2018-07-03 19:00:00 17.8 12 Oeste 24 Sudoeste 0 -- -- 73
2018-07-03 18:00:00 16.6 11 Oeste 23 Sudoeste 0 -- -- 75
2018-07-03 17:00:00 17.6 9 Sudoeste 24 Sudoeste 0 -- -- 73
2018-07-03 16:00:00 17.6 8 Sudoeste 27 Sudoeste 0 -- -- 71
2018-07-03 15:00:00 17 12 Oeste 23 Sudoeste 0 -- -- 77
2018-07-03 14:00:00 15.8 9 Sudoeste 19 Sudoeste 0 -- -- 86
2018-07-03 13:00:00 15.3 5 Oeste 18 Sur 0 -- -- 90
2018-07-03 12:00:00 13.9 7 Sur 15 Sur 0 -- -- 92
2018-07-03 11:00:00 12.8 3 Sur 10 Sudoeste 0 -- -- 100
2018-07-03 10:00:00 11.6 5 Sur 14 Sudoeste 0 -- -- 100
2018-07-03 09:00:00 11.3 5 Sudoeste 18 Sudoeste 0 -- -- 100
2018-07-03 08:00:00 11.2 9 Sudoeste 17 Oeste 0.2 -- -- 100
2018-07-03 07:00:00 11.5 9 Sudoeste 18 Sudoeste 0 -- -- 99
2018-07-03 06:00:00 11.5 8 Sudoeste 15 Sudoeste 0 -- -- 98
2018-07-03 05:00:00 11.6 6 Sur 14 Sur 0 -- -- 97
2018-07-03 04:00:00 11.4 4 Sudoeste 21 Sudoeste 0 -- -- 97
2018-07-03 03:00:00 11 9 Sudoeste 22 Sudoeste 0 -- -- 99
2018-07-03 02:00:00 10.9 4 Sur 17 Sur 0 -- -- 98
2018-07-03 01:00:00 11.6 6 Sudoeste 21 Sudoeste 0 -- -- 98
2018-07-03 00:00:00 11.7 5 Sur 23 Sudoeste 0 -- -- 99
2018-07-02 23:00:00 11.9 5 Sur 20 Sur 0 -- -- 99
2018-07-02 22:00:00 12.1 6 Sur 18 Sur 0 -- -- 99
2018-07-02 21:00:00 12.3 9 Sudoeste 23 Oeste 0 -- -- 99
2018-07-02 20:00:00 12.6 8 Sur 40 Sudoeste 0.2 -- -- 98
2018-07-02 19:00:00 13.7 15 Sudoeste 38 Sudoeste 0.2 -- -- 94
2018-07-02 18:00:00 16.8 10 Sudoeste 28 Oeste 0 -- -- 82
2018-07-02 17:00:00 15.2 12 Sur 25 Sudeste 0.4 -- -- 89
2018-07-02 16:00:00 15.9 10 Sur 32 Sur 0.8 -- -- 93
2018-07-02 15:00:00 13.4 15 Sudoeste 26 Sudoeste 1 -- -- 97
2018-07-02 14:00:00 14.5 4 Sudeste 17 Sudeste 0 -- -- 98
2018-07-02 13:00:00 13.7 5 Sudeste 17 Sur 0 -- -- 98
2018-07-02 12:00:00 13.5 4 Este 19 Sudeste 0 -- -- 100
2018-07-02 11:00:00 12.3 6 Sudeste 18 Sudeste 0.2 -- -- 100
2018-07-02 10:00:00 11.7 9 Sudeste 19 Sur 0.8 -- -- 99
2018-07-02 09:00:00 11.6 9 Sudeste 18 Sudeste 1 -- -- 98
2018-07-02 08:00:00 11.7 8 Sudeste 18 Sudeste 0.6 -- -- 96
2018-07-02 07:00:00 11.9 7 Sudeste 20 Sudeste 0 -- -- 95
2018-07-02 06:00:00 11.9 10 Sudeste 20 Sudeste 0 -- -- 94
2018-07-02 05:00:00 12 8 Sudeste 19 Sudeste 0 -- -- 93
2018-07-02 04:00:00 11.7 9 Sudeste 17 Sudeste 0.2 -- -- 95
2018-07-02 03:00:00 11.4 9 Sudeste 20 Sudeste 0 -- -- 96
2018-07-02 02:00:00 11.5 9 Sudeste 18 Sudeste 0 -- -- 96
2018-07-02 01:00:00 11.7 0 Calma 10 Sudeste 0 -- -- 96
2018-07-02 00:00:00 12 4 Sudeste 13 Sur 0 -- -- 95
2018-07-01 23:00:00 12.3 8 Sur 13 Sudeste 0 -- -- 94
2018-07-01 22:00:00 12.8 8 Sudeste 17 Sur 0 -- -- 93
2018-07-01 21:00:00 13 5 Sudoeste 14 Oeste 0.2 -- -- 94
2018-07-01 20:00:00 13.4 5 Sur 19 Oeste 0 -- -- 94
2018-07-01 19:00:00 13.7 3 Sudoeste 27 Sur 0 -- -- 90
2018-07-01 18:00:00 13.5 12 Sudoeste 37 Sur 0.4 -- -- 88
2018-07-01 17:00:00 16.4 7 Sur 28 Sur 0 -- -- 75
2018-07-01 16:00:00 16.1 8 Sudoeste 29 Sur 0 -- -- 79
2018-07-01 15:00:00 14 16 Sudoeste 35 Sudoeste 0 -- -- 83
2018-07-01 14:00:00 15.5 10 Sudoeste 24 Sur 0 -- -- 82
2018-07-01 13:00:00 16.5 5 Sur 26 Sudeste 0 -- -- 84
2018-07-01 12:00:00 15.9 2 Este 22 Sudeste 0 -- -- 89
2018-07-01 11:00:00 16.2 4 Este 19 Este 0 -- -- 91
2018-07-01 10:00:00 14.6 4 Este 22 Sudeste 0 -- -- 96
2018-07-01 09:00:00 13.3 4 Este 14 Sudeste 0 -- -- 98
2018-07-01 08:00:00 12.6 6 Sudeste 15 Sudeste 0 -- -- 95
2018-07-01 07:00:00 12.3 9 Sur 14 Sur 0 -- -- 95
2018-07-01 06:00:00 12.5 8 Sur 17 Sur 0 -- -- 94
2018-07-01 05:00:00 12.6 12 Sur 17 Sur 0.8 -- -- 94
2018-07-01 04:00:00 13.1 9 Sur 15 Sudeste 0 -- -- 90
2018-07-01 03:00:00 12.9 9 Sudeste 17 Sudeste 0 -- -- 91
2018-07-01 02:00:00 12.4 10 Sudeste 16 Sudeste 0 -- -- 97
2018-07-01 01:00:00 12.7 4 Sudeste 21 Sudeste 0 -- -- 96
2018-07-01 00:00:00 12.7 12 Sudeste 19 Sudeste 0 -- -- 97
2018-06-30 23:00:00 12.7 9 Sudeste 15 Sudeste 0 -- -- 96
2018-06-30 22:00:00 13.3 5 Sudoeste 12 Sur 0 -- -- 94
2018-06-30 21:00:00 13.8 4 Sur 10 Sur 0 -- -- 94
2018-06-30 20:00:00 13.9 4 Sudeste 10 Sudeste 0 -- -- 97
2018-06-30 19:00:00 13.1 6 Sudoeste 17 Oeste 0 -- -- 99
2018-06-30 18:00:00 12.5 9 Oeste 27 Sudeste 1.4 -- -- 96
2018-06-30 17:00:00 11.9 12 Sudeste 27 Sudeste 4.4 -- -- 99
2018-06-30 16:00:00 12.8 10 Este 30 Este 1.2 -- -- 100
2018-06-30 15:00:00 13.2 4 Este 13 Este 0 -- -- 98
2018-06-30 14:00:00 13.8 2 Este 12 Sudeste 0 -- -- 98
2018-06-30 13:00:00 13.2 2 Este 13 Este 1.4 -- -- 100
2018-06-30 12:00:00 12.5 5 Sudeste 24 Sudoeste 5.2 -- -- 96
2018-06-30 11:00:00 13.4 15 Sudoeste 29 Sudoeste 3.4 -- -- 96
2018-06-30 10:00:00 14 5 Sudeste 12 Sudeste 0.6 -- -- 98
2018-06-30 09:00:00 13.2 6 Sudeste 15 Sur 0 -- -- 98
2018-06-30 08:00:00 13 2 Este 21 Sudeste 2.2 -- -- 98
2018-06-30 07:00:00 13.6 12 Sudeste 24 Sudeste 0 -- -- 89
2018-06-30 06:00:00 13.5 3 Sudeste 20 Sur 1.2 -- -- 97
2018-06-30 05:00:00 15.2 15 Sur 44 Sudeste 3.6 -- -- 89
2018-06-30 04:00:00 15.5 10 Sudeste 35 Sudeste 0 -- -- 87
2018-06-30 03:00:00 15.3 13 Este 34 Este 0 -- -- 93
2018-06-30 02:00:00 14.6 10 Sudeste 19 Este 0 -- -- 99
2018-06-30 01:00:00 14.8 3 Nordeste 13 Nordeste 0 -- -- 100
2018-06-30 00:00:00 15.5 0 Calma 9 Sudeste 0 -- -- 99
2018-06-29 23:00:00 15.9 3 Nordeste 8 Este 0 -- -- 99
2018-06-29 22:00:00 16.2 5 Nordeste 15 Oeste 0.4 -- -- 96
2018-06-29 21:00:00 16.1 12 Oeste 21 Oeste 0.6 -- -- 95
2018-06-29 20:00:00 17.4 3 Nordeste 13 Noroeste 0.4 -- -- 92
2018-06-29 19:00:00 18.1 7 Noroeste 15 Norte 0.2 -- -- 83
2018-06-29 18:00:00 20 6 Noroeste 12 Noroeste 0 -- -- 69
2018-06-29 17:00:00 19.9 3 Noroeste 9 Nordeste 0 -- -- 67
2018-06-29 16:00:00 21.8 5 Nordeste 14 Nordeste 0 -- -- 66
2018-06-29 15:00:00 21.5 3 Este 12 Nordeste 0 -- -- 67
2018-06-29 14:00:00 20.8 3 Este 10 Este 0 -- -- 75
2018-06-29 13:00:00 20 3 Este 10 Este 0 -- -- 64
2018-06-29 12:00:00 18.7 3 Este 10 Este 0 -- -- 82
2018-06-29 11:00:00 16.5 4 Este 24 Sudeste 0 -- -- 83
2018-06-29 10:00:00 14.5 8 Sudeste 20 Sudeste 0 -- -- 84
2018-06-29 09:00:00 13.8 8 Sudeste 18 Sudeste 0 -- -- 86
2018-06-29 08:00:00 13 10 Sudeste 20 Sudeste 0 -- -- 85
2018-06-29 07:00:00 13.1 15 Sudeste 26 Sudeste 0 -- -- 83
2018-06-29 06:00:00 11.9 11 Sudeste 22 Sudeste 0 -- -- 98
2018-06-29 05:00:00 12.3 4 Sudeste 11 Este 0 -- -- 100
2018-06-29 04:00:00 12.4 2 Este 10 Este 0 -- -- 100
2018-06-29 03:00:00 12.4 2 Este 9 Sudeste 0 -- -- 98
2018-06-29 02:00:00 12.7 3 Nordeste 19 Sur 0 -- -- 99
2018-06-29 01:00:00 12.7 2 Este 10 Oeste 0 -- -- 100
2018-06-29 00:00:00 13 2 Noroeste 9 Este 0 -- -- 100
2018-06-28 23:00:00 13.2 4 Nordeste 17 Nordeste 0 -- -- 100
2018-06-28 22:00:00 13.2 0 Calma 27 Sudeste 0.2 -- -- 100
2018-06-28 21:00:00 13.7 5 Nordeste 20 Nordeste 1.6 -- -- 100
2018-06-28 20:00:00 13.4 13 Sudeste 21 Sudeste 1.8 -- -- 95
2018-06-28 19:00:00 14.6 7 Oeste 17 Oeste 2.2 -- -- 98
2018-06-28 18:00:00 15.2 9 Sudoeste 20 Sudoeste 0 -- -- 89
2018-06-28 17:00:00 15.2 6 Sur 27 Nordeste 0.4 -- -- 93
2018-06-28 16:00:00 16.3 4 Norte 17 Oeste 0 -- -- 93
2018-06-28 15:00:00 16.5 10 Oeste 18 Oeste 0 -- -- 91
2018-06-28 14:00:00 17.5 6 Noroeste 15 Noroeste 0 -- -- 90
2018-06-28 13:00:00 17.1 2 Nordeste 8 Norte 0 -- -- 94
2018-06-28 12:00:00 15.4 3 Este 8 Sudeste 0 -- -- 100
2018-06-28 11:00:00 13.6 3 Sudeste 10 Sudeste 0 -- -- 100
2018-06-28 10:00:00 12.4 2 Este 11 Sudeste 0 -- -- 100
2018-06-28 09:00:00 11.7 0 Calma 9 Sudeste 0 -- -- 100
2018-06-28 08:00:00 11.4 2 Este 9 Nordeste 0 -- -- 100
2018-06-28 07:00:00 11.4 0 Calma 9 Norte 0 -- -- 100
2018-06-28 06:00:00 11.6 3 Nordeste 10 Nordeste 0 -- -- 100
2018-06-28 05:00:00 11.9 0 Calma 6 Nordeste 0 -- -- 100
2018-06-28 04:00:00 12 0 Calma 8 Este 0 -- -- 100
2018-06-28 03:00:00 12.2 0 Calma 4 Norte 0 -- -- 100
2018-06-28 02:00:00 13 0 Calma 6 Oeste 0 -- -- 100
2018-06-28 01:00:00 13.2 3 Sudoeste 6 Oeste 0 -- -- 100
2018-06-28 00:00:00 13.2 0 Calma 8 Oeste 0 -- -- 99
2018-06-27 23:00:00 13 0 Calma 8 Nordeste 0 -- -- 99
2018-06-27 22:00:00 13.7 2 Noroeste 11 Norte 0 -- -- 98
2018-06-27 21:00:00 14.3 5 Norte 14 Oeste 0 -- -- 95
2018-06-27 20:00:00 15.4 8 Noroeste 15 Noroeste 0 -- -- 90
2018-06-27 19:00:00 15.9 6 Oeste 19 Oeste 0 -- -- 90
2018-06-27 18:00:00 15.1 11 Oeste 18 Oeste 0 -- -- 98
2018-06-27 17:00:00 14.7 8 Oeste 14 Oeste 0 -- -- 100
2018-06-27 16:00:00 14.1 6 Oeste 12 Oeste 0 -- -- 100
2018-06-27 15:00:00 14.2 3 Oeste 9 Oeste 0 -- -- 100
2018-06-27 14:00:00 13.3 3 Noroeste 10 Sudoeste 0 -- -- 100
2018-06-27 13:00:00 13 4 Oeste 11 Sudoeste 0 -- -- 100
2018-06-27 12:00:00 13 5 Oeste 10 Oeste 0 -- -- 100
2018-06-27 11:00:00 12.4 5 Oeste 10 Oeste 0 -- -- 100
2018-06-27 10:00:00 12 2 Nordeste 9 Norte 0.2 -- -- 100
2018-06-27 09:00:00 11.7 4 Noroeste 9 Noroeste 0 -- -- 100
2018-06-27 08:00:00 11.4 6 Oeste 10 Oeste 0 -- -- 100
2018-06-27 07:00:00 11.2 7 Oeste 14 Oeste 0.4 -- -- 100
2018-06-27 06:00:00 11.4 8 Oeste 17 Oeste 0 -- -- 100
2018-06-27 05:00:00 11.6 13 Oeste 22 Oeste 0 -- -- 100
2018-06-27 04:00:00 12.1 10 Oeste 14 Oeste 0.2 -- -- 100
2018-06-27 03:00:00 12.4 11 Sudoeste 18 Oeste 0 -- -- 100
2018-06-27 02:00:00 12.9 10 Oeste 14 Sudoeste 0.2 -- -- 100
2018-06-27 01:00:00 12.9 6 Noroeste 15 Oeste 0 -- -- 100
2018-06-27 00:00:00 13.5 7 Oeste 12 Oeste 0.2 -- -- 100
2018-06-26 23:00:00 13.8 6 Oeste 16 Noroeste 0.2 -- -- 100
2018-06-26 22:00:00 13.9 8 Oeste 15 Sudoeste 0 -- -- 100
2018-06-26 21:00:00 14.1 10 Oeste 21 Sudoeste 0 -- -- 100
2018-06-26 20:00:00 15 10 Oeste 21 Oeste 0 -- -- 98
2018-06-26 19:00:00 15.6 11 Oeste 20 Sudoeste 0 -- -- 98
2018-06-26 18:00:00 15.5 9 Oeste 17 Noroeste 0 -- -- 98
2018-06-26 17:00:00 15.6 8 Oeste 14 Sudoeste 0 -- -- 99
2018-06-26 16:00:00 15.5 7 Oeste 13 Oeste 0 -- -- 99
2018-06-26 15:00:00 15.3 9 Oeste 14 Oeste 0 -- -- 98
2018-06-26 14:00:00 15.9 5 Oeste 11 Sudoeste 0 -- -- 98
2018-06-26 13:00:00 15.1 6 Oeste 11 Sudoeste 0 -- -- 96
2018-06-26 12:00:00 16 7 Oeste 12 Oeste 0.4 -- -- 90
2018-06-26 11:00:00 15.2 2 Norte 13 Sudoeste 0 -- -- --
2018-06-26 10:00:00 14.1 7 Sudoeste 14 Sudoeste 0 -- -- --
2018-06-26 09:00:00 14.3 0 Calma 12 Sudoeste 0 -- -- --
2018-06-26 08:00:00 14.1 7 Sudoeste 13 Sudoeste 0 -- -- --
2018-06-26 07:00:00 14.4 2 Sur 6 Sudoeste 0 -- -- --
2018-06-26 06:00:00 14.6 0 Calma 10 Oeste 0 -- -- --
2018-06-26 05:00:00 14.6 0 Calma 6 Este 0 -- -- --
2018-06-26 04:00:00 14.4 0 Calma 12 Oeste 0 -- -- --
2018-06-26 03:00:00 14.5 10 Sudoeste 15 Sudoeste 0 -- -- --
2018-06-26 02:00:00 15 10 Sudoeste 15 Sudoeste 0 -- -- --
2018-06-26 01:00:00 15.8 3 Sur 12 Oeste 0 -- -- --
2018-06-26 00:00:00 15.9 7 Oeste 14 Oeste 0 -- -- --
2018-06-25 23:00:00 16.5 10 Oeste 21 Oeste 0 -- -- --
2018-06-25 22:00:00 17.6 14 Oeste 23 Oeste 0 -- -- --
2018-06-25 21:00:00 18.8 16 Oeste 26 Noroeste 0 -- -- --
2018-06-25 20:00:00 20.7 13 Oeste 27 Oeste 0 -- -- --
2018-06-25 19:00:00 22.6 16 Oeste 30 Oeste 0 -- -- --
2018-06-25 18:00:00 24.6 17 Oeste 32 Oeste 0 -- -- --
2018-06-25 17:00:00 26.5 11 Oeste 27 Oeste 0 -- -- --
2018-06-25 16:00:00 26.3 14 Oeste 24 Oeste 0 -- -- --
2018-06-25 15:00:00 27.7 7 Oeste 16 Oeste 0 -- -- --
2018-06-25 14:00:00 27.9 2 Este 12 Sudeste 0 -- -- --
2018-06-25 13:00:00 26 4 Norte 8 Norte 0 -- -- --
2018-06-25 12:00:00 26.1 3 Nordeste 19 Sudeste 0 -- -- --
2018-06-25 11:00:00 24.8 8 Sudeste 22 Sudeste 0 -- -- --
2018-06-25 10:00:00 23.3 10 Sudeste 27 Sudeste 0 -- -- --
2018-06-25 09:00:00 21.9 13 Sudeste 24 Sudeste 0 -- -- --
2018-06-25 08:00:00 21.2 13 Sudeste 25 Este 0 -- -- --
2018-06-25 07:00:00 21.2 12 Sudeste 26 Sudeste 0 -- -- --
2018-06-25 06:00:00 21.4 12 Sudeste 26 Este 0 -- -- --
2018-06-25 05:00:00 21.6 13 Sudeste 25 Sudeste 0 -- -- --
2018-06-25 04:00:00 21.5 6 Sudeste 19 Este 0 -- -- --
2018-06-25 03:00:00 19.8 2 Este 12 Sudeste 0 -- -- --
2018-06-25 02:00:00 20.7 0 Calma 3 Norte 0 -- -- --
2018-06-25 01:00:00 21.6 2 Nordeste 4 Norte 0 -- -- --
2018-06-25 00:00:00 22.9 0 Calma 14 Nordeste 0 -- -- --
2018-06-24 23:00:00 23.8 4 Nordeste 16 Nordeste 0 -- -- --
2018-06-24 22:00:00 24.3 6 Nordeste 17 Nordeste 0 -- -- --
2018-06-24 21:00:00 25.2 5 Nordeste 20 Nordeste 0 -- -- --
2018-06-24 20:00:00 26.7 5 Nordeste 17 Norte 0 -- -- --
2018-06-24 19:00:00 28.8 6 Noroeste 16 Noroeste 0 -- -- --
2018-06-24 18:00:00 30.1 6 Noroeste 15 Noroeste 0 -- -- --
2018-06-24 17:00:00 29.7 5 Noroeste 14 Noroeste 0 -- -- --
2018-06-24 16:00:00 29.1 6 Oeste 14 Oeste 0 -- -- --
2018-06-24 15:00:00 29.4 3 Oeste 10 Este 0 -- -- --
2018-06-24 14:00:00 28.7 2 Este 13 Este 0 -- -- --
2018-06-24 13:00:00 27.9 3 Este 18 Sudeste 0 -- -- --
2018-06-24 12:00:00 26.5 5 Sudeste 24 Sudeste 0 -- -- --
2018-06-24 11:00:00 24.5 9 Sudeste 26 Sudeste 0 -- -- --
2018-06-24 10:00:00 23.2 10 Sudeste 26 Sudeste 0 -- -- --
2018-06-24 09:00:00 22.2 12 Sudeste 24 Sudeste 0 -- -- --
2018-06-24 08:00:00 21.6 10 Sudeste 23 Sudeste 0 -- -- --
2018-06-24 07:00:00 21.4 13 Sudeste 25 Sudeste 0 -- -- --
2018-06-24 06:00:00 21.1 11 Sudeste 26 Sudeste 0 -- -- --
2018-06-24 05:00:00 21.1 17 Sudeste 29 Sudeste 0 -- -- --
2018-06-24 04:00:00 21.5 14 Sudeste 28 Sudeste 0 -- -- --
2018-06-24 03:00:00 21.8 14 Sudeste 26 Sudeste 0 -- -- --
2018-06-24 02:00:00 21.7 9 Este 25 Sudeste 0 -- -- --
2018-06-24 01:00:00 21 6 Sudeste 14 Este 0 -- -- --
2018-06-24 00:00:00 20.4 2 Nordeste 10 Este 0 -- -- --
2018-06-23 23:00:00 21.4 0 Calma 13 Este 0 -- -- --
2018-06-23 22:00:00 22.3 3 Nordeste 13 Nordeste 0 -- -- --
2018-06-23 21:00:00 23.5 4 Nordeste 14 Nordeste 0 -- -- --
2018-06-23 20:00:00 25.1 4 Nordeste 12 Norte 0 -- -- --
2018-06-23 19:00:00 26.4 4 Nordeste 11 Nordeste 0 -- -- --
2018-06-23 18:00:00 26.2 4 Noroeste 13 Nordeste 0 -- -- --
2018-06-23 17:00:00 26.7 4 Nordeste 12 Nordeste 0 -- -- --
2018-06-23 16:00:00 26.6 3 Nordeste 13 Norte 0 -- -- --
2018-06-23 15:00:00 25.9 3 Nordeste 9 Este 0 -- -- --
2018-06-23 14:00:00 25.1 3 Este 7 Nordeste 0 -- -- --
2018-06-23 13:00:00 24.4 2 Este 13 Sudeste 0 -- -- --
2018-06-23 12:00:00 23.3 5 Este 19 Sudeste 0 -- -- --
2018-06-23 11:00:00 21.2 9 Sudeste 23 Sudeste 0 -- -- --
2018-06-23 10:00:00 19.7 12 Sudeste 28 Sudeste 0 -- -- --
2018-06-23 09:00:00 18.8 13 Sudeste 26 Sudeste 0 -- -- --
2018-06-23 08:00:00 18 15 Sudeste 28 Sudeste 0 -- -- --
2018-06-23 07:00:00 17.7 15 Sudeste 28 Sudeste 0 -- -- --
2018-06-23 06:00:00 18 16 Sudeste 27 Sudeste 0 -- -- --
2018-06-23 05:00:00 18.1 16 Sudeste 29 Sudeste 0 -- -- --
2018-06-23 04:00:00 17.8 12 Sudeste 23 Sudeste 0 -- -- --
2018-06-23 03:00:00 18.1 14 Sudeste 22 Sudeste 0 -- -- --
2018-06-23 02:00:00 16.9 6 Sudeste 16 Sudeste 0 -- -- --
2018-06-23 01:00:00 15.3 4 Sudeste 10 Este 0 -- -- --
2018-06-23 00:00:00 15.9 4 Este 9 Este 0 -- -- --
2018-06-22 23:00:00 16.7 3 Nordeste 11 Sudeste 0 -- -- --
2018-06-22 22:00:00 18 2 Nordeste 6 Sudeste 0 -- -- --
2018-06-22 21:00:00 19.1 0 Calma 10 Nordeste 0 -- -- --
2018-06-22 20:00:00 20.1 3 Nordeste 10 Nordeste 0 -- -- --
2018-06-22 19:00:00 21.6 5 Nordeste 14 Norte 0 -- -- --
2018-06-22 18:00:00 22.4 5 Nordeste 17 Norte 0 -- -- --
2018-06-22 17:00:00 23 6 Nordeste 16 Nordeste 0 -- -- --
2018-06-22 16:00:00 23 5 Nordeste 14 Nordeste 0 -- -- --
2018-06-22 15:00:00 22.1 6 Nordeste 15 Nordeste 0 -- -- --
2018-06-22 14:00:00 20.9 5 Nordeste 14 Nordeste 0 -- -- --
2018-06-22 13:00:00 19.7 6 Norte 13 Nordeste 0 -- -- --
2018-06-22 12:00:00 17.5 3 Nordeste 8 Noroeste 0 -- -- --
2018-06-22 11:00:00 16 2 Este 6 Sudeste 0 -- -- --
2018-06-22 10:00:00 15.2 0 Calma 6 Este 0 -- -- --
2018-06-22 09:00:00 14.4 0 Calma 7 Este 0 -- -- --
2018-06-22 08:00:00 13.4 0 Calma 10 Nordeste 0 -- -- --
2018-06-22 07:00:00 13.3 3 Este 15 Nordeste 0 -- -- --
2018-06-22 06:00:00 13.4 4 Este 19 Este 0 -- -- --
2018-06-22 05:00:00 13.8 4 Este 11 Este 0 -- -- --
2018-06-22 04:00:00 13.9 3 Este 12 Este 0 -- -- --
2018-06-22 03:00:00 14 0 Calma 12 Este 0 -- -- --
2018-06-22 02:00:00 14.3 3 Este 10 Este 0.2 -- -- --
2018-06-22 01:00:00 14.3 4 Sudeste 14 Este 0 -- -- --
2018-06-22 00:00:00 14.3 5 Nordeste 18 Nordeste 0 -- -- --
2018-06-21 23:00:00 14.6 5 Nordeste 21 Nordeste 0 -- -- --
2018-06-21 22:00:00 15.2 4 Nordeste 19 Nordeste 0 -- -- --
2018-06-21 21:00:00 16.3 4 Nordeste 18 Nordeste 0 -- -- --
2018-06-21 20:00:00 17.9 4 Nordeste 11 Este 0 -- -- --
2018-06-21 19:00:00 18.5 3 Nordeste 17 Nordeste 0 -- -- --
2018-06-21 18:00:00 19.7 4 Nordeste 16 Norte 0 -- -- --
2018-06-21 17:00:00 21 5 Norte 17 Norte 0 -- -- --
2018-06-21 16:00:00 23.1 8 Norte 18 Norte 0 -- -- --
2018-06-21 15:00:00 23 4 Norte 12 Norte 0 -- -- --
2018-06-21 14:00:00 22.1 3 Sudeste 11 Sudeste 0 -- -- --
2018-06-21 13:00:00 19.5 3 Nordeste 17 Este 0 -- -- --
2018-06-21 12:00:00 17 4 Este 16 Nordeste 0 -- -- --
2018-06-21 11:00:00 15 3 Nordeste 17 Sudeste 0 -- -- --
2018-06-21 10:00:00 14.5 2 Nordeste 15 Este 0 -- -- --
2018-06-21 09:00:00 14.4 3 Nordeste 12 Nordeste 0 -- -- --
2018-06-21 08:00:00 14.4 2 Nordeste 10 Este 0 -- -- --
2018-06-21 07:00:00 14.4 2 Este 10 Sudeste 0 -- -- --
2018-06-21 06:00:00 14.8 4 Este 10 Nordeste 0 -- -- --
2018-06-21 05:00:00 15.5 4 Este 15 Sudeste 0 -- -- --
2018-06-21 04:00:00 17 2 Este 7 Sudeste 0 -- -- --
2018-06-21 03:00:00 17 0 Calma 5 Este 0 -- -- --
2018-06-21 02:00:00 17.8 2 Sudeste 5 Sudoeste 0 -- -- --
2018-06-21 01:00:00 18.6 0 Calma 7 Este 0 -- -- --
2018-06-21 00:00:00 18.6 0 Calma 8 Sudeste 0 -- -- --
2018-06-20 23:00:00 18.9 2 Este 10 Este 0 -- -- --
2018-06-20 22:00:00 19.9 4 Nordeste 8 Este 0 -- -- --
2018-06-20 21:00:00 20.7 0 Calma 10 Sudoeste 0 -- -- --
2018-06-20 20:00:00 20.8 4 Norte 15 Noroeste 0 -- -- --
2018-06-20 19:00:00 21.8 10 Noroeste 23 Noroeste 0 -- -- --
2018-06-20 18:00:00 24.9 9 Oeste 22 Oeste 0 -- -- --
2018-06-20 17:00:00 26.2 9 Noroeste 19 Noroeste 0 -- -- --
2018-06-20 16:00:00 25.4 8 Oeste 19 Noroeste 0 -- -- --
2018-06-20 15:00:00 25.3 6 Oeste 18 Noroeste 0 -- -- --
2018-06-20 14:00:00 24.7 7 Oeste 13 Sudoeste 0 -- -- --
2018-06-20 13:00:00 24.6 2 Sudoeste 8 Oeste 0 -- -- --
2018-06-20 12:00:00 23.6 2 Norte 8 Oeste 0 -- -- --
2018-06-20 11:00:00 21.9 3 Este 9 Este 0 -- -- --
2018-06-20 10:00:00 20.8 4 Sur 15 Sur 0 -- -- --
2018-06-20 09:00:00 19.6 5 Sur 11 Sur 0 -- -- --
2018-06-20 08:00:00 17.9 0 Calma 6 Oeste 0 -- -- --
2018-06-20 07:00:00 16.5 4 Oeste 6 Oeste 0 -- -- --
2018-06-20 06:00:00 16.9 4 Oeste 6 Oeste 0 -- -- --
2018-06-20 05:00:00 17.3 6 Oeste 8 Oeste 0 -- -- --
2018-06-20 04:00:00 17.8 7 Oeste 9 Oeste 0 -- -- --
2018-06-20 03:00:00 18.2 6 Sudoeste 8 Sudoeste 0 -- -- --
2018-06-20 02:00:00 19 5 Sudoeste 8 Sur 0 -- -- --
2018-06-20 01:00:00 18.9 5 Sur 8 Sur 0 -- -- --
2018-06-20 00:00:00 18.7 4 Sur 6 Sudeste 0 -- -- --
2018-06-19 23:00:00 19 0 Calma 3 Este 0 -- -- --
2018-06-19 22:00:00 20.4 2 Noroeste 9 Oeste 0 -- -- --
2018-06-19 21:00:00 21.4 8 Oeste 15 Oeste 0 -- -- --
2018-06-19 20:00:00 22.1 9 Oeste 18 Oeste 0 -- -- --
2018-06-19 19:00:00 23.7 9 Oeste 17 Oeste 0 -- -- --
2018-06-19 18:00:00 24.1 8 Noroeste 16 Oeste 0 -- -- --
2018-06-19 17:00:00 24.2 8 Oeste 15 Oeste 0 -- -- --
2018-06-19 16:00:00 24.3 3 Norte 15 Nordeste 0 -- -- --
2018-06-19 15:00:00 23.6 5 Nordeste 13 Norte 0 -- -- --
2018-06-19 14:00:00 23.2 0 Calma 8 Este 0 -- -- --
2018-06-19 13:00:00 22.1 3 Este 10 Este 0 -- -- --
2018-06-19 12:00:00 20.1 2 Este 8 Este 0 -- -- --
2018-06-19 11:00:00 17.1 3 Este 9 Este 0 -- -- --
2018-06-19 10:00:00 15.1 3 Este 10 Este 0 -- -- --
2018-06-19 09:00:00 13.1 4 Nordeste 17 Este 0 -- -- --
2018-06-19 08:00:00 11.6 4 Nordeste 17 Este 0 -- -- --
2018-06-19 07:00:00 10.8 4 Este 18 Este 0 -- -- --
2018-06-19 06:00:00 10.9 3 Nordeste 19 Este 0 -- -- --
2018-06-19 05:00:00 11.1 4 Este 21 Este 0 -- -- --
2018-06-19 04:00:00 11.4 4 Nordeste 24 Norte 0 -- -- --
2018-06-19 03:00:00 11.7 4 Nordeste 17 Este 0 -- -- --
2018-06-19 02:00:00 12.4 5 Nordeste 24 Este 0 -- -- --
2018-06-19 01:00:00 13 4 Nordeste 19 Este 0 -- -- --
2018-06-19 00:00:00 13.5 4 Nordeste 19 Nordeste 0 -- -- --
2018-06-18 23:00:00 14.3 5 Nordeste 16 Este 0 -- -- --
2018-06-18 22:00:00 15.5 5 Nordeste 23 Nordeste 0 -- -- --
2018-06-18 21:00:00 16.9 6 Nordeste 17 Nordeste 0 -- -- --
2018-06-18 20:00:00 18.5 4 Nordeste 19 Nordeste 0 -- -- --
2018-06-18 19:00:00 20.7 7 Nordeste 23 Nordeste 0 -- -- --
2018-06-18 18:00:00 22.2 8 Nordeste 25 Nordeste 0 -- -- --
2018-06-18 17:00:00 23.5 7 Nordeste 26 Nordeste 0 -- -- --
2018-06-18 16:00:00 23.5 7 Nordeste 27 Nordeste 0 -- -- --
2018-06-18 15:00:00 23.1 4 Nordeste 22 Norte 0 -- -- --
2018-06-18 14:00:00 22.4 5 Nordeste 22 Nordeste 0 -- -- --
2018-06-18 13:00:00 21.1 3 Nordeste 15 Nordeste 0 -- -- --
2018-06-18 12:00:00 19.3 4 Nordeste 14 Nordeste 0 -- -- --
2018-06-18 11:00:00 16.6 4 Nordeste 15 Norte 0 -- -- --
2018-06-18 10:00:00 15.3 5 Nordeste 22 Nordeste 0 -- -- --
2018-06-18 09:00:00 13.7 5 Nordeste 26 Nordeste 0 -- -- --
2018-06-18 08:00:00 13 8 Nordeste 21 Este 0 -- -- --
2018-06-18 07:00:00 11 3 Este 13 Este 0 -- -- --
2018-06-18 06:00:00 11.4 4 Este 12 Sudeste 0 -- -- --
2018-06-18 05:00:00 11.2 4 Este 16 Este 0 -- -- --
2018-06-18 04:00:00 11.7 4 Este 14 Este 0 -- -- --
2018-06-18 03:00:00 12.3 2 Nordeste 11 Este 0 -- -- --
2018-06-18 02:00:00 12.8 3 Este 14 Este 0 -- -- --
2018-06-18 01:00:00 13.2 3 Este 11 Este 0 -- -- --
2018-06-18 00:00:00 13.8 3 Este 13 Este 0 -- -- --
2018-06-17 23:00:00 14.8 0 Calma 14 Nordeste 0 -- -- --
2018-06-17 22:00:00 15.8 6 Nordeste 17 Nordeste 0 -- -- --
2018-06-17 21:00:00 17.2 5 Noroeste 18 Noroeste 0 -- -- --
2018-06-17 20:00:00 18.8 9 Noroeste 23 Noroeste 0 -- -- --
2018-06-17 19:00:00 20.7 8 Noroeste 19 Norte 0 -- -- --
2018-06-17 18:00:00 21.5 9 Norte 22 Norte 0 -- -- --
2018-06-17 17:00:00 22 7 Norte 21 Norte 0 -- -- --
2018-06-17 16:00:00 21.5 6 Norte 19 Norte 0 -- -- --
2018-06-17 15:00:00 20.6 6 Norte 17 Nordeste 0 -- -- --
2018-06-17 14:00:00 19.6 5 Nordeste 17 Nordeste 0 -- -- --
2018-06-17 13:00:00 18.9 4 Nordeste 13 Este 0 -- -- --
2018-06-17 12:00:00 16.6 3 Norte 12 Norte 0 -- -- --
2018-06-17 11:00:00 13.1 3 Nordeste 10 Nordeste 0 -- -- --
2018-06-17 10:00:00 11.2 3 Este 15 Norte 0 -- -- --
2018-06-17 09:00:00 10 3 Este 17 Este 0 -- -- --
2018-06-17 08:00:00 9.7 3 Nordeste 13 Este 0 -- -- --
2018-06-17 07:00:00 9.8 2 Nordeste 10 Sudeste 0 -- -- --
2018-06-17 06:00:00 9.9 3 Este 15 Este 0 -- -- --
2018-06-17 05:00:00 9.9 3 Nordeste 14 Este 0 -- -- --
2018-06-17 04:00:00 10.1 3 Este 15 Norte 0 -- -- --
2018-06-17 03:00:00 10.3 3 Nordeste 16 Norte 0 -- -- --
2018-06-17 02:00:00 10.7 4 Nordeste 11 Nordeste 0 -- -- --
2018-06-17 01:00:00 11.5 0 Calma 13 Este 0 -- -- --
2018-06-17 00:00:00 11.6 0 Calma 10 Nordeste 0 -- -- --